Weather at Marldon Airstrip

Public forecast

Using degrees Celsius for public forecast. Weather courtesy of forecast.io.

Closest aviation weather report (METAR) to Marldon Airstrip

Closest report is Exeter International Airport, 18.0 nm (33.4 km) NNE. Retrieved 2021/10/28 13:20 UTC (0 seconds ago):

EGTE 281320Z 16017KT 6000 -RADZ FEW012 BKN020 15/13 Q1003

Closest aviation forecast (TAF) to Marldon Airstrip

Forecast is more than 12 hours old.

Closest forecast is Exeter International Airport, 18.0 nm (33.4 km) NNE. Retrieved 2012/04/19 12:15 UTC (10 years ago):

TAF TAF EGTE 191401Z 1912/1924 31016KT 9999 SCT030 SCT035 PROB40 TEMPO 1915/1918 7000 SHRA BKN014